Alliance — WDC8119 — position and weather

sailwx.info

Track history (hours):
 
Tides and Currents Weather Stations Pressure Air Temp Water Temp Dewpoint Dewpoint Depression Visibility Wind Speed Wind Dir Waves Ship Positions

Alliance (United States)

Ship's website: http://www.schooneralliance.com

Owner: Yorktown Sailing Charters, LLC, Yorktown, VA. More information available from US FCC via Universal Licensing System and Coast Guard Vessel Documentation Center.

Last reported at 2016-Mar-27 13:33 UTC. Time now 2016-Dec-05 18:44 UTC.
Position N 36°57' W 076°05'.
Warning: this ship's position is months out of date.

Length 24 m.

Type: Passenger vessel. MMSI: 303514000.

Date/timePositionNaut miles runAvg speedWind from/ knotsBaromVisibWave heightAir tempDewpointWater temp
2016-Mar-27 13:33N 36°57' W 076°05'2 2.2
2016-Mar-27 12:31N 36°55' W 076°03'0 0.0
2016-Mar-27 11:25N 36°55' W 076°03'0 0.0
2016-Mar-26 14:18N 36°55' W 076°04'  
2016-Mar-23 07:05N 36°55' W 075°57'152 5.7
2016-Mar-22 04:33N 34°26' W 076°31'7 7.2
2016-Mar-22 03:33N 34°32' W 076°35'8 7.6
2016-Mar-22 02:33N 34°39' W 076°38'1 0.9
2016-Mar-22 01:32N 34°40' W 076°38'0 0.0
2016-Mar-22 00:32N 34°40' W 076°38'0 0.0
2016-Mar-21 23:32N 34°40' W 076°38'0 0.0
2016-Mar-21 22:32N 34°40' W 076°38'0 0.0
2016-Mar-21 21:29N 34°40' W 076°38'0 0.0
2016-Mar-21 20:32N 34°40' W 076°38'0 0.0
2016-Mar-21 19:32N 34°40' W 076°38'0 0.0
2016-Mar-21 18:32N 34°40' W 076°38'0 0.0
2016-Mar-21 17:32N 34°40' W 076°38'0 0.0
2016-Mar-21 16:32N 34°40' W 076°38'0 0.0
2016-Mar-21 15:32N 34°40' W 076°38'0 0.0
2016-Mar-21 14:29N 34°40' W 076°38'0 0.0
2016-Mar-21 13:32N 34°40' W 076°38'0 0.0
2016-Mar-21 12:32N 34°40' W 076°38'0 0.0
2016-Mar-21 11:32N 34°40' W 076°38'0 0.0
2016-Mar-21 10:32N 34°40' W 076°38'0 0.0
2016-Mar-21 09:32N 34°40' W 076°38'1 1.0
2016-Mar-21 08:33N 34°39' W 076°39'5 5.1
2016-Mar-21 07:34N 34°34' W 076°41'7 7.0
2016-Mar-21 06:33N 34°28' W 076°45'  
2016-Mar-18 12:09N 26°32' W 079°46'6 9.5
2016-Mar-18 11:30N 26°26' W 079°46'10 9.4
2016-Mar-18 10:29N 26°16' W 079°46'10 9.7
2016-Mar-18 09:29N 26°06' W 079°47'910.1
2016-Mar-18 08:33N 25°57' W 079°49'1010.2
2016-Mar-18 07:32N 25°47' W 079°52'  
Track history (hours):
 
Tides and Currents Weather Stations Pressure Air Temp Water Temp Dewpoint Dewpoint Depression Visibility Wind Speed Wind Dir Waves Ship Positions

Alliance (United States)

Ship's website: http://www.schooneralliance.com

Owner: Yorktown Sailing Charters, LLC, Yorktown, VA. More information available from US FCC via Universal Licensing System and Coast Guard Vessel Documentation Center.

Last reported at 2016-Mar-27 13:33 UTC. Time now 2016-Dec-05 18:44 UTC.
Position N 36°57' W 076°05'.
Warning: this ship's position is months out of date.

Length 24 m.

Type: Passenger vessel. MMSI: 303514000.

Date/timePositionNaut miles runAvg speedWind from/ knotsBaromVisibWave heightAir tempDewpointWater temp
2016-Mar-27 13:33N 36°57' W 076°05'2 2.2
2016-Mar-27 12:31N 36°55' W 076°03'0 0.0
2016-Mar-27 11:25N 36°55' W 076°03'0 0.0
2016-Mar-26 14:18N 36°55' W 076°04'  
2016-Mar-23 07:05N 36°55' W 075°57'152 5.7
2016-Mar-22 04:33N 34°26' W 076°31'7 7.2
2016-Mar-22 03:33N 34°32' W 076°35'8 7.6
2016-Mar-22 02:33N 34°39' W 076°38'1 0.9
2016-Mar-22 01:32N 34°40' W 076°38'0 0.0
2016-Mar-22 00:32N 34°40' W 076°38'0 0.0
2016-Mar-21 23:32N 34°40' W 076°38'0 0.0
2016-Mar-21 22:32N 34°40' W 076°38'0 0.0
2016-Mar-21 21:29N 34°40' W 076°38'0 0.0
2016-Mar-21 20:32N 34°40' W 076°38'0 0.0
2016-Mar-21 19:32N 34°40' W 076°38'0 0.0
2016-Mar-21 18:32N 34°40' W 076°38'0 0.0
2016-Mar-21 17:32N 34°40' W 076°38'0 0.0
2016-Mar-21 16:32N 34°40' W 076°38'0 0.0
2016-Mar-21 15:32N 34°40' W 076°38'0 0.0
2016-Mar-21 14:29N 34°40' W 076°38'0 0.0
2016-Mar-21 13:32N 34°40' W 076°38'0 0.0
2016-Mar-21 12:32N 34°40' W 076°38'0 0.0
2016-Mar-21 11:32N 34°40' W 076°38'0 0.0
2016-Mar-21 10:32N 34°40' W 076°38'0 0.0
2016-Mar-21 09:32N 34°40' W 076°38'1 1.0
2016-Mar-21 08:33N 34°39' W 076°39'5 5.1
2016-Mar-21 07:34N 34°34' W 076°41'7 7.0
2016-Mar-21 06:33N 34°28' W 076°45'  
2016-Mar-18 12:09N 26°32' W 079°46'6 9.5
2016-Mar-18 11:30N 26°26' W 079°46'10 9.4
2016-Mar-18 10:29N 26°16' W 079°46'10 9.7
2016-Mar-18 09:29N 26°06' W 079°47'910.1
2016-Mar-18 08:33N 25°57' W 079°49'1010.2
2016-Mar-18 07:32N 25°47' W 079°52'  

Dump ship's entire track history